< < Back
Terminal Aerodrome Forecast


Current Version              Previous Versions:   1  2  3  4  5  6  7  8  9  

Terminal Aerodrome Forecast

645
FTUS42 KJAX 230600 AAB
TAFGNV
TAF AMD
KGNV 230655Z 2307/2406 VRB02KT 5SM BR BKN008
      TEMPO 2307/2311 1SM BR BKN001
     FM231600 05010KT P6SM VCSH BKN025 BKN050
     FM240200 02006KT P6SM SCT025 BKN050=

Latest METAR

949
SAUS70 KWBC 230800 RRG
MTRGNV
METAR KGNV 230753Z AUTO 02005KT 5SM BR OVC002 22/22 A2999 RMK AO2 SLP152
T02170217


USA.gov is the U.S. government's official web portal to all federal, state and local government web resources and services.